Time,TemperatureF,DewpointF,PressureIn,WindDirection,WindDirectionDegrees,WindSpeedMPH,WindSpeedGustMPH,Humidity,HourlyPrecipIn,Conditions,Clouds,dailyrainin,SoftwareType,DateUTC
2014-03-09 00:04:00,44.9,39.4,30.04,SSW,200,0.0,1.0,81,0.00,,,0.00,WeatherCatV1.24B11,2014-03-09 05:04:00,
2014-03-09 00:09:00,44.9,39.4,30.04,SSW,200,0.0,0.0,81,0.00,,,0.00,WeatherCatV1.24B11,2014-03-09 05:09:00,
2014-03-09 00:14:00,44.9,39.4,30.03,SSW,200,0.0,0.0,81,0.00,,,0.00,WeatherCatV1.24B11,2014-03-09 05:14:00,
2014-03-09 00:19:00,45.0,39.5,30.03,SSW,200,0.0,0.0,81,0.00,,,0.00,WeatherCatV1.24B11,2014-03-09 05:19:00,
2014-03-09 00:24:00,44.9,39.4,30.03,SSW,200,0.0,0.0,81,0.00,,,0.00,WeatherCatV1.24B11,2014-03-09 05:24:00,
2014-03-09 00:29:00,44.8,39.3,30.03,SSW,200,0.0,0.0,81,0.00,,,0.00,WeatherCatV1.24B11,2014-03-09 05:29:00,
2014-03-09 00:34:00,44.8,39.3,30.03,SSW,200,0.0,0.0,81,0.00,,,0.00,WeatherCatV1.24B11,2014-03-09 05:34:00,
2014-03-09 00:39:00,44.7,39.2,30.03,SSW,200,0.0,0.0,81,0.00,,,0.00,WeatherCatV1.24B11,2014-03-09 05:39:00,
2014-03-09 00:44:00,44.6,39.1,30.03,SSW,200,0.0,0.0,81,0.00,,,0.00,WeatherCatV1.24B11,2014-03-09 05:44:00,
2014-03-09 00:49:00,44.5,39.3,30.03,SSW,200,0.0,0.0,82,0.00,,,0.00,WeatherCatV1.24B11,2014-03-09 05:49:00,
2014-03-09 00:54:00,44.3,39.2,30.03,SSW,200,0.0,0.0,82,0.00,,,0.00,WeatherCatV1.24B11,2014-03-09 05:54:00,
2014-03-09 00:59:00,44.2,39.1,30.03,SSW,200,0.0,0.0,82,0.00,,,0.00,WeatherCatV1.24B11,2014-03-09 05:59:00,
2014-03-09 01:04:00,44.1,39.0,30.03,SSW,200,0.0,0.0,82,0.00,,,0.00,WeatherCatV1.24B11,2014-03-09 06:04:00,
2014-03-09 01:09:00,44.1,39.0,30.03,SSW,200,0.0,0.0,82,0.00,,,0.00,WeatherCatV1.24B11,2014-03-09 06:09:00,
2014-03-09 01:29:00,43.6,38.8,30.03,SSW,200,0.0,0.0,83,0.00,,,0.00,WeatherCatV1.24B11,2014-03-09 06:29:00,
2014-03-09 01:34:00,43.5,38.7,30.03,SSW,200,0.0,0.0,83,0.00,,,0.00,WeatherCatV1.24B11,2014-03-09 06:34:00,
2014-03-09 01:39:00,43.5,38.7,30.03,SSW,200,0.0,3.0,83,0.00,,,0.00,WeatherCatV1.24B11,2014-03-09 06:39:00,
2014-03-09 01:44:00,43.4,38.6,30.03,SSW,200,2.0,3.0,83,0.00,,,0.00,WeatherCatV1.24B11,2014-03-09 06:44:00,
2014-03-09 01:49:00,43.5,38.7,30.03,SSW,200,0.0,0.0,83,0.00,,,0.00,WeatherCatV1.24B11,2014-03-09 06:49:00,
2014-03-09 01:54:00,43.5,38.4,30.03,SSW,200,0.0,1.0,82,0.00,,,0.00,WeatherCatV1.24B11,2014-03-09 06:54:00,
2014-03-09 01:59:00,43.5,38.4,30.03,SSW,200,2.0,2.0,82,0.00,,,0.00,WeatherCatV1.24B11,2014-03-09 06:59:00,
2014-03-09 03:04:00,43.4,38.3,30.03,SSW,200,1.0,2.0,82,0.00,,,0.00,WeatherCatV1.24B11,2014-03-09 07:04:00,
2014-03-09 03:09:00,43.3,38.2,30.03,SSW,200,2.0,2.0,82,0.00,,,0.00,WeatherCatV1.24B11,2014-03-09 07:09:00,
2014-03-09 03:14:00,43.4,38.3,30.03,SSW,200,0.0,0.0,82,0.00,,,0.00,WeatherCatV1.24B11,2014-03-09 07:14:00,
2014-03-09 03:19:00,43.3,38.2,30.03,SSW,200,0.0,0.0,82,0.00,,,0.00,WeatherCatV1.24B11,2014-03-09 07:19:00,
2014-03-09 03:24:00,43.3,38.2,30.02,SSW,200,1.0,2.0,82,0.00,,,0.00,WeatherCatV1.24B11,2014-03-09 07:24:00,
2014-03-09 03:29:00,43.2,38.1,30.02,SSW,200,0.0,0.0,82,0.00,,,0.00,WeatherCatV1.24B11,2014-03-09 07:29:00,
2014-03-09 03:34:00,43.2,38.4,30.02,SSW,200,0.0,2.0,83,0.00,,,0.00,WeatherCatV1.24B11,2014-03-09 07:34:00,
2014-03-09 03:39:00,43.2,38.1,30.02,SSW,200,0.0,2.0,82,0.00,,,0.00,WeatherCatV1.24B11,2014-03-09 07:39:00,
2014-03-09 03:44:00,43.0,37.9,30.02,SSW,200,0.0,0.0,82,0.00,,,0.00,WeatherCatV1.24B11,2014-03-09 07:44:00,
2014-03-09 03:49:00,42.9,38.1,30.02,SSW,200,1.0,2.0,83,0.00,,,0.00,WeatherCatV1.24B11,2014-03-09 07:49:00,
2014-03-09 03:54:00,42.7,37.9,30.03,SSW,200,0.0,0.0,83,0.00,,,0.00,WeatherCatV1.24B11,2014-03-09 07:54:00,
2014-03-09 03:59:00,42.5,37.7,30.02,SSW,200,0.0,0.0,83,0.00,,,0.00,WeatherCatV1.24B11,2014-03-09 07:59:00,
2014-03-09 04:04:00,42.3,37.8,30.02,SW,217,0.0,0.0,84,0.00,,,0.00,WeatherCatV1.24B11,2014-03-09 08:04:00,
2014-03-09 04:09:00,42.1,37.9,30.02,SW,217,0.0,0.0,85,0.00,,,0.00,WeatherCatV1.24B11,2014-03-09 08:09:00,
2014-03-09 04:14:00,41.8,37.6,30.02,SW,217,0.0,0.0,85,0.00,,,0.00,WeatherCatV1.24B11,2014-03-09 08:14:00,
2014-03-09 04:19:00,41.7,37.8,30.02,SW,215,0.0,2.0,86,0.00,,,0.00,WeatherCatV1.24B11,2014-03-09 08:19:00,
2014-03-09 04:24:00,41.6,37.7,30.02,East,84,0.0,0.0,86,0.00,,,0.00,WeatherCatV1.24B11,2014-03-09 08:24:00,
2014-03-09 04:29:00,41.8,37.6,30.01,SSW,194,0.0,0.0,85,0.00,,,0.00,WeatherCatV1.24B11,2014-03-09 08:29:00,
2014-03-09 04:34:00,42.3,38.1,30.01,SSW,199,3.0,4.0,85,0.00,,,0.00,WeatherCatV1.24B11,2014-03-09 08:34:00,
2014-03-09 04:39:00,43.9,38.8,30.01,SW,225,5.0,6.0,82,0.00,,,0.00,WeatherCatV1.24B11,2014-03-09 08:39:00,
2014-03-09 04:44:00,44.8,38.4,30.01,SSE,165,2.0,4.0,78,0.00,,,0.00,WeatherCatV1.24B11,2014-03-09 08:44:00,
2014-03-09 04:49:00,45.3,38.5,30.01,SSW,206,3.0,5.0,77,0.00,,,0.00,WeatherCatV1.24B11,2014-03-09 08:49:00,
2014-03-09 04:54:00,45.5,38.4,30.01,SSE,155,0.0,0.0,76,0.00,,,0.00,WeatherCatV1.24B11,2014-03-09 08:54:00,
2014-03-09 04:59:00,45.4,38.3,30.01,SE,146,0.0,2.0,76,0.00,,,0.00,WeatherCatV1.24B11,2014-03-09 08:59:00,
2014-03-09 05:04:00,45.7,38.6,30.01,South,180,2.0,6.0,76,0.00,,,0.00,WeatherCatV1.24B11,2014-03-09 09:04:00,
2014-03-09 05:09:00,46.4,38.6,30.01,SSW,202,3.0,3.0,74,0.00,,,0.00,WeatherCatV1.24B11,2014-03-09 09:09:00,
2014-03-09 05:14:00,47.2,39.0,30.01,SSW,208,2.0,6.0,73,0.00,,,0.00,WeatherCatV1.24B11,2014-03-09 09:14:00,
2014-03-09 05:19:00,47.6,39.0,30.01,South,174,2.0,4.0,72,0.00,,,0.00,WeatherCatV1.24B11,2014-03-09 09:19:00,
2014-03-09 05:24:00,48.0,39.0,30.01,South,175,0.0,2.0,71,0.00,,,0.00,WeatherCatV1.24B11,2014-03-09 09:24:00,
2014-03-09 05:29:00,48.1,39.2,30.02,South,175,0.0,0.0,71,0.00,,,0.00,WeatherCatV1.24B11,2014-03-09 09:29:00,
2014-03-09 05:34:00,48.2,39.2,30.01,South,177,1.0,2.0,71,0.00,,,0.00,WeatherCatV1.24B11,2014-03-09 09:34:00,
2014-03-09 05:39:00,48.3,39.3,30.01,South,177,0.0,0.0,71,0.00,,,0.00,WeatherCatV1.24B11,2014-03-09 09:39:00,
2014-03-09 05:44:00,48.4,39.8,30.02,South,175,0.0,4.0,72,0.00,,,0.00,WeatherCatV1.24B11,2014-03-09 09:44:00,
2014-03-09 05:49:00,48.4,39.8,30.01,SSE,164,0.0,2.0,72,0.00,,,0.00,WeatherCatV1.24B11,2014-03-09 09:49:00,
2014-03-09 05:54:00,48.2,39.6,30.01,SSE,164,0.0,0.0,72,0.00,,,0.00,WeatherCatV1.24B11,2014-03-09 09:54:00,
2014-03-09 05:59:00,48.0,39.8,30.02,SSE,164,0.0,0.0,73,0.00,,,0.00,WeatherCatV1.24B11,2014-03-09 09:59:00,
2014-03-09 06:04:00,48.0,39.8,30.02,SSE,163,0.0,1.0,73,0.00,,,0.00,WeatherCatV1.24B11,2014-03-09 10:04:00,
2014-03-09 06:09:00,47.8,39.9,30.02,SSE,164,0.0,2.0,74,0.00,,,0.00,WeatherCatV1.24B11,2014-03-09 10:09:00,
2014-03-09 06:14:00,47.8,40.3,30.02,SSE,161,2.0,4.0,75,0.00,,,0.00,WeatherCatV1.24B11,2014-03-09 10:14:00,
2014-03-09 06:19:00,47.8,39.9,30.02,SE,143,2.0,2.0,74,0.00,,,0.00,WeatherCatV1.24B11,2014-03-09 10:19:00,
2014-03-09 06:24:00,47.7,40.2,30.03,WSW,237,0.0,1.0,75,0.00,,,0.00,WeatherCatV1.24B11,2014-03-09 10:24:00,
2014-03-09 06:29:00,47.6,40.1,30.03,WSW,238,1.0,3.0,75,0.00,,,0.00,WeatherCatV1.24B11,2014-03-09 10:29:00,
2014-03-09 06:34:00,47.5,40.3,30.02,SW,233,1.0,3.0,76,0.00,,,0.00,WeatherCatV1.24B11,2014-03-09 10:34:00,
2014-03-09 06:39:00,47.7,40.2,30.02,SSE,153,1.0,4.0,75,0.00,,,0.00,WeatherCatV1.24B11,2014-03-09 10:39:00,
2014-03-09 06:44:00,47.7,40.2,30.03,SW,235,5.0,8.0,75,0.00,,,0.00,WeatherCatV1.24B11,2014-03-09 10:44:00,
2014-03-09 06:49:00,48.1,40.6,30.03,West,279,2.0,7.0,75,0.00,,,0.00,WeatherCatV1.24B11,2014-03-09 10:49:00,
2014-03-09 06:54:00,48.5,40.6,30.03,SSW,209,4.0,5.0,74,0.00,,,0.00,WeatherCatV1.24B11,2014-03-09 10:54:00,
2014-03-09 06:59:00,49.2,40.9,30.03,WSW,254,6.0,6.0,73,0.00,,,0.00,WeatherCatV1.24B11,2014-03-09 10:59:00,
2014-03-09 07:04:00,49.7,41.0,30.03,South,189,3.0,5.0,72,0.00,,,0.00,WeatherCatV1.24B11,2014-03-09 11:04:00,
2014-03-09 07:09:00,50.0,41.0,30.03,SW,235,5.0,7.0,71,0.00,,,0.00,WeatherCatV1.24B11,2014-03-09 11:09:00,
2014-03-09 07:14:00,50.3,40.9,30.03,South,186,4.0,12.0,70,0.00,,,0.00,WeatherCatV1.24B11,2014-03-09 11:14:00,
2014-03-09 07:19:00,50.5,41.1,30.03,SW,219,8.0,8.0,70,0.00,,,0.00,WeatherCatV1.24B11,2014-03-09 11:19:00,
2014-03-09 07:24:00,50.6,40.8,30.03,WSW,247,10.0,10.0,69,0.00,,,0.00,WeatherCatV1.24B11,2014-03-09 11:24:00,
2014-03-09 07:29:00,50.8,40.6,30.03,SSE,163,6.0,15.0,68,0.00,,,0.00,WeatherCatV1.24B11,2014-03-09 11:29:00,
2014-03-09 07:39:00,51.1,40.5,30.03,SSW,203,6.0,10.0,67,0.00,,,0.00,WeatherCatV1.24B11,2014-03-09 11:39:00,
2014-03-09 07:44:00,51.2,40.6,30.03,SSW,209,6.0,9.0,67,0.00,,,0.00,WeatherCatV1.24B11,2014-03-09 11:44:00,
2014-03-09 07:49:00,51.1,40.5,30.03,SSW,212,7.0,14.0,67,0.00,,,0.00,WeatherCatV1.24B11,2014-03-09 11:49:00,
2014-03-09 07:54:00,51.1,40.5,30.03,SSW,202,12.0,13.0,67,0.00,,,0.00,WeatherCatV1.24B11,2014-03-09 11:54:00,
2014-03-09 07:59:00,51.2,39.8,30.03,SW,234,8.0,13.0,65,0.00,,,0.00,WeatherCatV1.24B11,2014-03-09 11:59:00,
2014-03-09 08:04:00,51.2,39.8,30.04,West,271,5.0,10.0,65,0.00,,,0.00,WeatherCatV1.24B11,2014-03-09 12:04:00,
2014-03-09 08:09:00,51.0,39.7,30.04,SSW,210,4.0,10.0,65,0.00,,,0.00,WeatherCatV1.24B11,2014-03-09 12:09:00,
2014-03-09 08:19:00,51.0,39.7,30.04,West,269,4.0,9.0,65,0.00,,,0.00,WeatherCatV1.24B11,2014-03-09 12:19:00,
2014-03-09 08:24:00,51.0,39.7,30.04,South,172,8.0,9.0,65,0.00,,,0.00,WeatherCatV1.24B11,2014-03-09 12:24:00,
2014-03-09 08:29:00,50.9,39.2,30.04,WSW,252,7.0,16.0,64,0.00,,,0.00,WeatherCatV1.24B11,2014-03-09 12:29:00,
2014-03-09 08:34:00,50.9,39.2,30.04,West,259,13.0,14.0,64,0.00,,,0.00,WeatherCatV1.24B11,2014-03-09 12:34:00,
2014-03-09 08:39:00,50.9,39.2,30.05,WSW,239,11.0,12.0,64,0.00,,,0.00,WeatherCatV1.24B11,2014-03-09 12:39:00,
2014-03-09 08:44:00,51.0,39.3,30.05,SW,223,9.0,15.0,64,0.00,,,0.00,WeatherCatV1.24B11,2014-03-09 12:44:00,
2014-03-09 08:49:00,51.2,39.0,30.05,SSW,208,6.0,18.0,63,0.00,,,0.00,WeatherCatV1.24B11,2014-03-09 12:49:00,
2014-03-09 08:54:00,51.2,39.0,30.05,WSW,242,5.0,9.0,63,0.00,,,0.00,WeatherCatV1.24B11,2014-03-09 12:54:00,
2014-03-09 08:59:00,51.3,39.1,30.05,WSW,252,3.0,6.0,63,0.00,,,0.00,WeatherCatV1.24B11,2014-03-09 12:59:00,
2014-03-09 09:04:00,51.3,39.5,30.05,SW,224,4.0,5.0,64,0.00,,,0.00,WeatherCatV1.24B11,2014-03-09 13:04:00,
2014-03-09 09:09:00,51.3,39.5,30.06,South,190,2.0,2.0,64,0.00,,,0.00,WeatherCatV1.24B11,2014-03-09 13:09:00,
2014-03-09 09:14:00,51.5,40.1,30.06,South,178,5.0,7.0,65,0.00,,,0.00,WeatherCatV1.24B11,2014-03-09 13:14:00,
2014-03-09 09:19:00,51.6,39.8,30.06,SSE,157,5.0,5.0,64,0.00,,,0.00,WeatherCatV1.24B11,2014-03-09 13:19:00,
2014-03-09 09:24:00,51.8,39.6,30.06,WNW,297,1.0,5.0,63,0.00,,,0.00,WeatherCatV1.24B11,2014-03-09 13:24:00,
2014-03-09 09:29:00,52.1,39.9,30.06,SE,146,2.0,7.0,63,0.00,,,0.00,WeatherCatV1.24B11,2014-03-09 13:29:00,
2014-03-09 09:34:00,52.4,39.8,30.06,South,176,1.0,1.0,62,0.00,,,0.00,WeatherCatV1.24B11,2014-03-09 13:34:00,
2014-03-09 09:39:00,52.8,40.1,30.06,East,90,0.0,1.0,62,0.00,,,0.00,WeatherCatV1.24B11,2014-03-09 13:39:00,
2014-03-09 09:44:00,53.3,39.8,30.06,West,269,2.0,7.0,60,0.00,,,0.00,WeatherCatV1.24B11,2014-03-09 13:44:00,
2014-03-09 09:49:00,53.6,39.2,30.06,South,175,6.0,6.0,58,0.00,,,0.00,WeatherCatV1.24B11,2014-03-09 13:49:00,
2014-03-09 09:54:00,53.8,39.4,30.06,South,186,6.0,6.0,58,0.00,,,0.00,WeatherCatV1.24B11,2014-03-09 13:54:00,
2014-03-09 09:59:00,54.2,38.8,30.06,SSW,200,4.0,7.0,56,0.00,,,0.00,WeatherCatV1.24B11,2014-03-09 13:59:00,
2014-03-09 10:04:00,54.6,39.2,30.07,SSW,196,7.0,7.0,56,0.00,,,0.00,WeatherCatV1.24B11,2014-03-09 14:04:00,
2014-03-09 10:09:00,55.0,37.7,30.06,North,5,9.0,11.0,52,0.00,,,0.00,WeatherCatV1.24B11,2014-03-09 14:09:00,
2014-03-09 10:14:00,55.5,38.7,30.06,West,271,8.0,13.0,53,0.00,,,0.00,WeatherCatV1.24B11,2014-03-09 14:14:00,
2014-03-09 10:19:00,55.9,39.0,30.06,North,0,4.0,8.0,53,0.00,,,0.00,WeatherCatV1.24B11,2014-03-09 14:19:00,
2014-03-09 10:24:00,56.3,40.3,30.06,NNE,19,0.0,2.0,55,0.00,,,0.00,WeatherCatV1.24B11,2014-03-09 14:24:00,
2014-03-09 10:29:00,56.8,38.9,30.07,NW,309,6.0,6.0,51,0.00,,,0.00,WeatherCatV1.24B11,2014-03-09 14:29:00,
2014-03-09 10:34:00,56.6,38.2,30.07,WSW,254,6.0,12.0,50,0.00,,,0.00,WeatherCatV1.24B11,2014-03-09 14:34:00,
2014-03-09 10:39:00,56.5,38.6,30.07,SSW,192,2.0,10.0,51,0.00,,,0.00,WeatherCatV1.24B11,2014-03-09 14:39:00,
2014-03-09 10:44:00,56.6,39.7,30.07,SSW,204,4.0,7.0,53,0.00,,,0.00,WeatherCatV1.24B11,2014-03-09 14:44:00,
2014-03-09 10:49:00,56.6,40.2,30.07,ESE,115,1.0,7.0,54,0.00,,,0.00,WeatherCatV1.24B11,2014-03-09 14:49:00,
2014-03-09 10:54:00,56.7,39.8,30.07,South,182,11.0,11.0,53,0.00,,,0.00,WeatherCatV1.24B11,2014-03-09 14:54:00,
2014-03-09 10:59:00,56.8,39.8,30.07,SSE,164,10.0,15.0,53,0.00,,,0.00,WeatherCatV1.24B11,2014-03-09 14:59:00,
2014-03-09 11:04:00,56.6,39.7,30.07,WSW,254,3.0,6.0,53,0.00,,,0.00,WeatherCatV1.24B11,2014-03-09 15:04:00,
2014-03-09 11:09:00,56.7,39.8,30.07,South,174,7.0,9.0,53,0.00,,,0.00,WeatherCatV1.24B11,2014-03-09 15:09:00,
2014-03-09 11:14:00,57.1,40.6,30.06,WNW,299,2.0,5.0,54,0.00,,,0.00,WeatherCatV1.24B11,2014-03-09 15:14:00,
2014-03-09 11:19:00,57.4,40.4,30.07,SW,222,8.0,13.0,53,0.00,,,0.00,WeatherCatV1.24B11,2014-03-09 15:19:00,
2014-03-09 11:24:00,57.6,40.6,30.06,SSW,192,1.0,8.0,53,0.00,,,0.00,WeatherCatV1.24B11,2014-03-09 15:24:00,
2014-03-09 11:29:00,58.0,40.5,30.06,West,261,10.0,12.0,52,0.00,,,0.00,WeatherCatV1.24B11,2014-03-09 15:29:00,
2014-03-09 11:34:00,58.1,42.0,30.06,South,182,5.0,8.0,55,0.00,,,0.00,WeatherCatV1.24B11,2014-03-09 15:34:00,
2014-03-09 11:39:00,58.2,41.2,30.06,SSE,157,7.0,7.0,53,0.00,,,0.00,WeatherCatV1.24B11,2014-03-09 15:39:00,
2014-03-09 11:44:00,58.3,40.8,30.06,South,182,6.0,15.0,52,0.00,,,0.00,WeatherCatV1.24B11,2014-03-09 15:44:00,
2014-03-09 11:49:00,58.5,40.9,30.06,SW,222,5.0,14.0,52,0.00,,,0.00,WeatherCatV1.24B11,2014-03-09 15:49:00,
2014-03-09 11:54:00,58.5,40.9,30.06,SW,215,5.0,13.0,52,0.00,,,0.00,WeatherCatV1.24B11,2014-03-09 15:54:00,
2014-03-09 11:59:00,58.9,41.3,30.06,SSW,213,4.0,6.0,52,0.00,,,0.00,WeatherCatV1.24B11,2014-03-09 15:59:00,
2014-03-09 12:04:00,59.3,41.2,30.05,SSW,198,13.0,13.0,51,0.00,,,0.00,WeatherCatV1.24B11,2014-03-09 16:04:00,
2014-03-09 12:09:00,59.3,41.7,30.06,SSE,155,9.0,11.0,52,0.00,,,0.00,WeatherCatV1.24B11,2014-03-09 16:09:00,
2014-03-09 12:14:00,59.4,41.3,30.05,WNW,287,5.0,9.0,51,0.00,,,0.00,WeatherCatV1.24B11,2014-03-09 16:14:00,
2014-03-09 12:19:00,59.7,41.0,30.05,WSW,242,10.0,10.0,50,0.00,,,0.00,WeatherCatV1.24B11,2014-03-09 16:19:00,
2014-03-09 12:29:00,60.0,42.3,30.05,SSE,163,6.0,8.0,52,0.00,,,0.00,WeatherCatV1.24B11,2014-03-09 16:29:00,
2014-03-09 12:34:00,60.4,41.7,30.05,SW,236,2.0,10.0,50,0.00,,,0.00,WeatherCatV1.24B11,2014-03-09 16:34:00,
2014-03-09 12:39:00,60.5,41.8,30.05,SSE,150,6.0,11.0,50,0.00,,,0.00,WeatherCatV1.24B11,2014-03-09 16:39:00,
2014-03-09 12:44:00,60.8,41.5,30.05,SSW,207,6.0,15.0,49,0.00,,,0.00,WeatherCatV1.24B11,2014-03-09 16:44:00,
2014-03-09 12:49:00,61.0,41.7,30.05,SSE,167,11.0,16.0,49,0.00,,,0.00,WeatherCatV1.24B11,2014-03-09 16:49:00,
2014-03-09 12:54:00,61.2,41.9,30.04,SW,233,13.0,17.0,49,0.00,,,0.00,WeatherCatV1.24B11,2014-03-09 16:54:00,
2014-03-09 12:59:00,61.1,42.3,30.05,SW,218,2.0,7.0,50,0.00,,,0.00,WeatherCatV1.24B11,2014-03-09 16:59:00,
2014-03-09 13:04:00,61.7,42.3,30.04,WSW,242,14.0,24.0,49,0.00,,,0.00,WeatherCatV1.24B11,2014-03-09 17:04:00,
2014-03-09 13:09:00,61.8,41.3,30.04,SW,229,10.0,16.0,47,0.00,,,0.00,WeatherCatV1.24B11,2014-03-09 17:09:00,
2014-03-09 13:14:00,61.9,42.0,30.04,SSW,207,4.0,10.0,48,0.00,,,0.00,WeatherCatV1.24B11,2014-03-09 17:14:00,
2014-03-09 13:19:00,62.2,41.7,30.04,WSW,238,6.0,12.0,47,0.00,,,0.00,WeatherCatV1.24B11,2014-03-09 17:19:00,
2014-03-09 13:24:00,62.1,42.2,30.03,SW,230,4.0,11.0,48,0.00,,,0.00,WeatherCatV1.24B11,2014-03-09 17:24:00,
2014-03-09 13:29:00,62.6,42.6,30.03,SW,227,10.0,11.0,48,0.00,,,0.00,WeatherCatV1.24B11,2014-03-09 17:29:00,
2014-03-09 13:34:00,63.1,42.5,30.03,SSW,192,5.0,9.0,47,0.00,,,0.00,WeatherCatV1.24B11,2014-03-09 17:34:00,
2014-03-09 13:39:00,63.3,41.6,30.02,South,188,13.0,20.0,45,0.00,,,0.00,WeatherCatV1.24B11,2014-03-09 17:39:00,
2014-03-09 13:44:00,63.1,42.5,30.03,SW,235,6.0,13.0,47,0.00,,,0.00,WeatherCatV1.24B11,2014-03-09 17:44:00,
2014-03-09 13:49:00,63.5,41.8,30.02,South,182,13.0,20.0,45,0.00,,,0.00,WeatherCatV1.24B11,2014-03-09 17:49:00,
2014-03-09 13:54:00,63.4,41.7,30.02,SSW,196,13.0,13.0,45,0.00,,,0.00,WeatherCatV1.24B11,2014-03-09 17:54:00,
2014-03-09 13:59:00,63.5,41.8,30.02,SW,232,10.0,14.0,45,0.00,,,0.00,WeatherCatV1.24B11,2014-03-09 17:59:00,
2014-03-09 14:04:00,63.5,42.3,30.02,SW,215,13.0,13.0,46,0.00,,,0.00,WeatherCatV1.24B11,2014-03-09 18:04:00,
2014-03-09 14:09:00,63.9,42.7,30.02,SW,224,12.0,12.0,46,0.00,,,0.00,WeatherCatV1.24B11,2014-03-09 18:09:00,
2014-03-09 14:14:00,63.7,41.4,30.01,WSW,239,11.0,17.0,44,0.00,,,0.00,WeatherCatV1.24B11,2014-03-09 18:14:00,
2014-03-09 14:19:00,64.0,42.2,30.01,SSW,194,2.0,12.0,45,0.00,,,0.00,WeatherCatV1.24B11,2014-03-09 18:19:00,
2014-03-09 14:24:00,64.4,42.6,30.01,WSW,258,13.0,14.0,45,0.00,,,0.00,WeatherCatV1.24B11,2014-03-09 18:24:00,
2014-03-09 14:29:00,64.6,42.2,30.01,WSW,254,10.0,28.0,44,0.00,,,0.00,WeatherCatV1.24B11,2014-03-09 18:29:00,
2014-03-09 14:34:00,64.8,41.8,30.01,SSW,201,9.0,14.0,43,0.00,,,0.00,WeatherCatV1.24B11,2014-03-09 18:34:00,
2014-03-09 14:39:00,64.6,42.2,30.00,WSW,247,8.0,14.0,44,0.00,,,0.00,WeatherCatV1.24B11,2014-03-09 18:39:00,
2014-03-09 14:44:00,64.4,41.4,30.00,SW,220,9.0,20.0,43,0.00,,,0.00,WeatherCatV1.24B11,2014-03-09 18:44:00,
2014-03-09 14:49:00,64.6,41.6,30.00,SW,232,5.0,14.0,43,0.00,,,0.00,WeatherCatV1.24B11,2014-03-09 18:49:00,
2014-03-09 14:54:00,64.8,41.8,30.00,South,191,8.0,14.0,43,0.00,,,0.00,WeatherCatV1.24B11,2014-03-09 18:54:00,
2014-03-09 14:59:00,64.8,41.2,30.00,SSW,208,4.0,14.0,42,0.00,,,0.00,WeatherCatV1.24B11,2014-03-09 18:59:00,
2014-03-09 15:04:00,64.6,41.6,29.99,West,261,11.0,21.0,43,0.00,,,0.00,WeatherCatV1.24B11,2014-03-09 19:04:00,
2014-03-09 15:09:00,64.6,41.0,29.99,SW,232,16.0,18.0,42,0.00,,,0.00,WeatherCatV1.24B11,2014-03-09 19:09:00,
2014-03-09 15:14:00,64.7,42.3,29.99,West,263,3.0,10.0,44,0.00,,,0.00,WeatherCatV1.24B11,2014-03-09 19:14:00,
2014-03-09 15:19:00,65.3,41.6,29.99,SSW,193,8.0,17.0,42,0.00,,,0.00,WeatherCatV1.24B11,2014-03-09 19:19:00,
2014-03-09 15:24:00,65.6,41.3,29.99,WSW,255,25.0,25.0,41,0.00,,,0.00,WeatherCatV1.24B11,2014-03-09 19:24:00,
2014-03-09 15:29:00,65.5,41.8,29.99,West,262,7.0,18.0,42,0.00,,,0.00,WeatherCatV1.24B11,2014-03-09 19:29:00,
2014-03-09 15:34:00,65.7,41.3,29.99,West,276,13.0,16.0,41,0.00,,,0.00,WeatherCatV1.24B11,2014-03-09 19:34:00,
2014-03-09 15:39:00,65.9,42.2,29.98,WNW,286,8.0,14.0,42,0.00,,,0.00,WeatherCatV1.24B11,2014-03-09 19:39:00,
2014-03-09 15:44:00,66.1,41.1,29.99,WSW,242,11.0,16.0,40,0.00,,,0.00,WeatherCatV1.24B11,2014-03-09 19:44:00,
2014-03-09 15:49:00,66.0,41.6,29.98,West,264,7.0,15.0,41,0.00,,,0.00,WeatherCatV1.24B11,2014-03-09 19:49:00,
2014-03-09 15:54:00,66.2,41.8,29.98,SW,215,9.0,13.0,41,0.00,,,0.00,WeatherCatV1.24B11,2014-03-09 19:54:00,
2014-03-09 15:59:00,65.9,40.9,29.98,WSW,258,7.0,18.0,40,0.00,,,0.00,WeatherCatV1.24B11,2014-03-09 19:59:00,
2014-03-09 16:04:00,65.4,41.1,29.98,WSW,238,5.0,14.0,41,0.00,,,0.00,WeatherCatV1.24B11,2014-03-09 20:04:00,
2014-03-09 16:14:00,66.5,41.4,29.98,SSW,200,2.0,9.0,40,0.00,,,0.00,WeatherCatV1.24B11,2014-03-09 20:14:00,
2014-03-09 16:19:00,66.8,42.3,29.98,WSW,239,14.0,18.0,41,0.00,,,0.00,WeatherCatV1.24B11,2014-03-09 20:19:00,
2014-03-09 16:29:00,66.1,40.4,29.98,West,259,17.0,22.0,39,0.00,,,0.00,WeatherCatV1.24B11,2014-03-09 20:29:00,
2014-03-09 16:34:00,65.5,39.9,29.98,West,261,14.0,19.0,39,0.00,,,0.00,WeatherCatV1.24B11,2014-03-09 20:34:00,
2014-03-09 16:39:00,64.9,40.0,29.98,WSW,251,13.0,15.0,40,0.00,,,0.00,WeatherCatV1.24B11,2014-03-09 20:39:00,
2014-03-09 16:44:00,65.1,40.2,29.98,SW,217,14.0,16.0,40,0.00,,,0.00,WeatherCatV1.24B11,2014-03-09 20:44:00,
2014-03-09 16:49:00,65.2,40.9,29.98,West,262,8.0,10.0,41,0.00,,,0.00,WeatherCatV1.24B11,2014-03-09 20:49:00,
2014-03-09 16:54:00,65.5,39.9,29.98,WSW,248,15.0,15.0,39,0.00,,,0.00,WeatherCatV1.24B11,2014-03-09 20:54:00,
2014-03-09 16:59:00,64.9,39.3,29.98,NW,321,5.0,18.0,39,0.00,,,0.00,WeatherCatV1.24B11,2014-03-09 20:59:00,
2014-03-09 17:04:00,64.8,39.3,29.98,SSW,211,7.0,19.0,39,0.00,,,0.00,WeatherCatV1.24B11,2014-03-09 21:04:00,
2014-03-09 17:14:00,65.1,39.5,29.98,South,190,5.0,12.0,39,0.00,,,0.00,WeatherCatV1.24B11,2014-03-09 21:14:00,
2014-03-09 17:19:00,65.0,39.4,29.98,SSW,211,11.0,16.0,39,0.00,,,0.00,WeatherCatV1.24B11,2014-03-09 21:19:00,
2014-03-09 17:44:00,64.8,37.9,29.98,South,174,8.0,13.0,37,0.00,,,0.00,WeatherCatV1.24B11,2014-03-09 21:44:00,
2014-03-09 17:49:00,64.8,37.2,29.98,SSW,193,3.0,14.0,36,0.00,,,0.00,WeatherCatV1.24B11,2014-03-09 21:49:00,
2014-03-09 17:54:00,64.5,37.0,29.98,WSW,238,15.0,15.0,36,0.00,,,0.00,WeatherCatV1.24B11,2014-03-09 21:54:00,
2014-03-09 17:59:00,64.3,36.8,29.98,SW,235,6.0,17.0,36,0.00,,,0.00,WeatherCatV1.24B11,2014-03-09 21:59:00,
2014-03-09 18:04:00,64.2,35.2,29.98,WSW,237,10.0,17.0,34,0.00,,,0.00,WeatherCatV1.24B11,2014-03-09 22:04:00,
2014-03-09 18:09:00,64.1,34.4,29.98,WSW,244,13.0,14.0,33,0.00,,,0.00,WeatherCatV1.24B11,2014-03-09 22:09:00,
2014-03-09 18:14:00,64.0,34.3,29.98,SW,225,11.0,13.0,33,0.00,,,0.00,WeatherCatV1.24B11,2014-03-09 22:14:00,
2014-03-09 18:19:00,64.2,33.7,29.98,SW,233,13.0,14.0,32,0.00,,,0.00,WeatherCatV1.24B11,2014-03-09 22:19:00,
2014-03-09 18:24:00,64.1,32.8,29.98,SSW,209,6.0,15.0,31,0.00,,,0.00,WeatherCatV1.24B11,2014-03-09 22:24:00,
2014-03-09 18:29:00,63.9,33.5,29.99,SW,234,4.0,14.0,32,0.00,,,0.00,WeatherCatV1.24B11,2014-03-09 22:29:00,
2014-03-09 18:34:00,63.9,33.5,29.99,WNW,290,7.0,11.0,32,0.00,,,0.00,WeatherCatV1.24B11,2014-03-09 22:34:00,
2014-03-09 18:39:00,64.0,32.8,29.99,SSW,205,5.0,15.0,31,0.00,,,0.00,WeatherCatV1.24B11,2014-03-09 22:39:00,
2014-03-09 18:44:00,63.8,32.6,29.99,SSW,212,3.0,6.0,31,0.00,,,0.00,WeatherCatV1.24B11,2014-03-09 22:44:00,
2014-03-09 18:49:00,63.5,32.3,29.99,South,178,4.0,12.0,31,0.00,,,0.00,WeatherCatV1.24B11,2014-03-09 22:49:00,
2014-03-09 18:54:00,63.1,30.3,29.99,SSW,197,8.0,16.0,29,0.00,,,0.00,WeatherCatV1.24B11,2014-03-09 22:54:00,
2014-03-09 19:04:00,62.5,31.5,30.00,WSW,250,8.0,13.0,31,0.00,,,0.00,WeatherCatV1.24B11,2014-03-09 23:04:00,
2014-03-09 19:09:00,62.3,32.1,30.00,WSW,237,8.0,10.0,32,0.00,,,0.00,WeatherCatV1.24B11,2014-03-09 23:09:00,
2014-03-09 19:14:00,62.1,32.7,30.00,SW,219,3.0,14.0,33,0.00,,,0.00,WeatherCatV1.24B11,2014-03-09 23:14:00,
2014-03-09 19:19:00,61.9,32.5,29.99,WSW,242,6.0,14.0,33,0.00,,,0.00,WeatherCatV1.24B11,2014-03-09 23:19:00,
2014-03-09 19:24:00,61.6,33.0,29.99,South,174,6.0,11.0,34,0.00,,,0.00,WeatherCatV1.24B11,2014-03-09 23:24:00,
2014-03-09 19:29:00,61.3,32.7,29.99,SW,215,11.0,11.0,34,0.00,,,0.00,WeatherCatV1.24B11,2014-03-09 23:29:00,
2014-03-09 19:34:00,61.1,33.2,30.00,SSW,204,4.0,7.0,35,0.00,,,0.00,WeatherCatV1.24B11,2014-03-09 23:34:00,
2014-03-09 19:39:00,60.8,33.0,30.00,SSW,213,1.0,5.0,35,0.00,,,0.00,WeatherCatV1.24B11,2014-03-09 23:39:00,
2014-03-09 19:44:00,60.5,33.4,30.00,SSW,197,2.0,5.0,36,0.00,,,0.00,WeatherCatV1.24B11,2014-03-09 23:44:00,
2014-03-09 19:49:00,60.2,33.8,30.00,South,183,1.0,3.0,37,0.00,,,0.00,WeatherCatV1.24B11,2014-03-09 23:49:00,
2014-03-09 19:54:00,59.9,33.6,30.00,SSW,194,7.0,7.0,37,0.00,,,0.00,WeatherCatV1.24B11,2014-03-09 23:54:00,
2014-03-09 19:59:00,59.8,33.5,30.00,SW,216,3.0,4.0,37,0.00,,,0.00,WeatherCatV1.24B11,2014-03-09 23:59:00,
2014-03-09 20:04:00,59.6,33.3,30.00,South,182,1.0,6.0,37,0.00,,,0.00,WeatherCatV1.24B11,2014-03-10 00:04:00,
2014-03-09 20:09:00,59.4,33.1,30.00,WSW,254,2.0,7.0,37,0.00,,,0.00,WeatherCatV1.24B11,2014-03-10 00:09:00,
2014-03-09 20:14:00,59.2,33.6,30.00,SSW,213,0.0,3.0,38,0.00,,,0.00,WeatherCatV1.24B11,2014-03-10 00:14:00,
2014-03-09 20:19:00,59.0,33.4,30.01,South,190,2.0,2.0,38,0.00,,,0.00,WeatherCatV1.24B11,2014-03-10 00:19:00,
2014-03-09 20:24:00,58.6,33.7,30.01,East,96,0.0,1.0,39,0.00,,,0.00,WeatherCatV1.24B11,2014-03-10 00:24:00,
2014-03-09 20:29:00,58.2,34.0,30.01,East,96,0.0,1.0,40,0.00,,,0.00,WeatherCatV1.24B11,2014-03-10 00:29:00,
2014-03-09 20:34:00,57.7,33.5,30.01,East,96,0.0,0.0,40,0.00,,,0.00,WeatherCatV1.24B11,2014-03-10 00:34:00,
2014-03-09 20:39:00,57.3,34.4,30.01,East,96,0.0,0.0,42,0.00,,,0.00,WeatherCatV1.24B11,2014-03-10 00:39:00,
2014-03-09 20:44:00,56.6,33.8,30.01,East,96,0.0,0.0,42,0.00,,,0.00,WeatherCatV1.24B11,2014-03-10 00:44:00,
2014-03-09 20:49:00,56.1,34.5,30.01,East,96,0.0,0.0,44,0.00,,,0.00,WeatherCatV1.24B11,2014-03-10 00:49:00,
2014-03-09 20:54:00,55.6,34.0,30.02,East,96,0.0,0.0,44,0.00,,,0.00,WeatherCatV1.24B11,2014-03-10 00:54:00,
2014-03-09 21:09:00,54.1,34.3,30.02,East,98,1.0,2.0,47,0.00,,,0.00,WeatherCatV1.24B11,2014-03-10 01:09:00,
2014-03-09 21:14:00,53.7,34.5,30.02,East,98,0.0,1.0,48,0.00,,,0.00,WeatherCatV1.24B11,2014-03-10 01:14:00,
2014-03-09 21:19:00,53.3,34.1,30.02,East,98,0.0,0.0,48,0.00,,,0.00,WeatherCatV1.24B11,2014-03-10 01:19:00,
2014-03-09 21:24:00,52.9,34.3,30.02,East,98,0.0,0.0,49,0.00,,,0.00,WeatherCatV1.24B11,2014-03-10 01:24:00,
2014-03-09 21:29:00,52.6,34.0,30.02,East,98,0.0,0.0,49,0.00,,,0.00,WeatherCatV1.24B11,2014-03-10 01:29:00,
2014-03-09 21:34:00,52.2,34.1,30.02,East,98,0.0,1.0,50,0.00,,,0.00,WeatherCatV1.24B11,2014-03-10 01:34:00,
2014-03-09 21:39:00,51.9,33.8,30.02,East,100,0.0,0.0,50,0.00,,,0.00,WeatherCatV1.24B11,2014-03-10 01:39:00,
2014-03-09 21:44:00,51.8,34.2,30.02,South,172,1.0,4.0,51,0.00,,,0.00,WeatherCatV1.24B11,2014-03-10 01:44:00,
2014-03-09 21:49:00,51.9,33.8,30.02,SSW,205,0.0,1.0,50,0.00,,,0.00,WeatherCatV1.24B11,2014-03-10 01:49:00,
2014-03-09 21:54:00,51.9,34.8,30.02,SSW,205,0.0,2.0,52,0.00,,,0.00,WeatherCatV1.24B11,2014-03-10 01:54:00,
2014-03-09 22:04:00,51.5,34.9,30.03,SW,217,2.0,3.0,53,0.00,,,0.00,WeatherCatV1.24B11,2014-03-10 02:04:00,
2014-03-09 22:09:00,51.3,35.2,30.02,SW,217,2.0,2.0,54,0.00,,,0.00,WeatherCatV1.24B11,2014-03-10 02:09:00,
2014-03-09 22:19:00,51.0,35.0,30.03,SW,217,0.0,3.0,54,0.00,,,0.00,WeatherCatV1.24B11,2014-03-10 02:19:00,
2014-03-09 22:24:00,50.8,34.3,30.03,SW,217,2.0,2.0,53,0.00,,,0.00,WeatherCatV1.24B11,2014-03-10 02:24:00,
2014-03-09 22:29:00,50.9,34.4,30.03,SW,217,1.0,2.0,53,0.00,,,0.00,WeatherCatV1.24B11,2014-03-10 02:29:00,
2014-03-09 22:34:00,50.7,33.7,30.03,SW,217,0.0,2.0,52,0.00,,,0.00,WeatherCatV1.24B11,2014-03-10 02:34:00,
2014-03-09 22:39:00,50.7,34.7,30.03,SW,217,1.0,3.0,54,0.00,,,0.00,WeatherCatV1.24B11,2014-03-10 02:39:00,
2014-03-09 22:40:00,50.7,34.7,30.03,SW,216,2.0,4.0,54,0.00,,,0.00,WeatherCatV1.24B11,2014-03-10 02:40:00,
2014-03-09 22:45:00,50.5,34.0,30.03,SW,217,2.0,3.0,53,0.00,,,0.00,WeatherCatV1.24B11,2014-03-10 02:45:00,
2014-03-09 22:50:00,50.3,33.8,30.03,SW,217,2.0,2.0,53,0.00,,,0.00,WeatherCatV1.24B11,2014-03-10 02:50:00,
2014-03-09 22:55:00,50.1,34.6,30.03,SW,217,2.0,2.0,55,0.00,,,0.00,WeatherCatV1.24B11,2014-03-10 02:55:00,
2014-03-09 23:00:00,49.7,34.2,30.03,SW,217,1.0,2.0,55,0.00,,,0.00,WeatherCatV1.24B11,2014-03-10 03:00:00,
2014-03-09 23:05:00,49.6,33.6,30.03,SW,217,1.0,2.0,54,0.00,,,0.00,WeatherCatV1.24B11,2014-03-10 03:05:00,
2014-03-09 23:16:00,49.4,33.9,30.03,SW,217,1.0,2.0,55,0.00,,,0.00,WeatherCatV1.24B11,2014-03-10 03:16:00,
2014-03-09 23:21:00,48.9,34.8,30.02,SW,217,1.0,2.0,58,0.00,,,0.00,WeatherCatV1.24B11,2014-03-10 03:21:00,
2014-03-09 23:41:00,46.6,35.9,30.02,SW,217,0.0,0.0,66,0.00,,,0.00,WeatherCatV1.24B11,2014-03-10 03:41:00,
2014-03-09 23:46:00,46.2,35.5,30.02,SW,217,0.0,0.0,66,0.00,,,0.00,WeatherCatV1.24B11,2014-03-10 03:46:00,
2014-03-09 23:56:00,45.6,35.7,30.02,SW,217,0.0,0.0,68,0.00,,,0.00,WeatherCatV1.24B11,2014-03-10 03:56:00,